createdAt,value
2022-09-05T00:02:56.606Z,65.10
2022-09-05T00:06:09.993Z,64.50
2022-09-05T00:09:27.767Z,65.30
2022-09-05T00:12:36.583Z,65.90
2022-09-05T00:15:58.043Z,65.40
2022-09-05T00:24:19.713Z,65.70
2022-09-05T00:24:30.499Z,66.10
2022-09-05T00:26:37.187Z,66.00
2022-09-05T00:31:08.222Z,66.10
2022-09-05T00:33:38.309Z,65.10
2022-09-05T00:36:48.314Z,65.00
2022-09-05T00:40:17.480Z,64.90
2022-09-05T00:43:21.946Z,64.40
2022-09-05T00:46:32.057Z,63.80
2022-09-05T00:49:44.898Z,64.00
2022-09-05T00:53:07.502Z,64.30
2022-09-05T00:56:35.863Z,64.20
2022-09-05T01:00:18.170Z,64.70
2022-09-05T01:04:21.834Z,65.10
2022-09-05T01:07:46.958Z,66.10
2022-09-05T01:11:03.425Z,65.30
2022-09-05T01:14:26.898Z,65.00
2022-09-05T01:17:52.077Z,65.80
2022-09-05T01:21:40.204Z,64.90
2022-09-05T01:25:12.918Z,66.40
2022-09-05T01:29:17.128Z,66.30
2022-09-05T01:32:10.469Z,66.40
2022-09-05T01:36:19.596Z,67.30
2022-09-05T01:40:12.126Z,67.60
2022-09-05T01:43:26.732Z,66.80
2022-09-05T01:46:43.808Z,67.30
2022-09-05T01:50:02.959Z,67.20
2022-09-05T01:53:34.538Z,67.70
2022-09-05T01:56:51.292Z,68.50
2022-09-05T02:00:06.660Z,68.00
2022-09-05T02:03:24.568Z,67.70
2022-09-05T02:06:44.375Z,68.00
2022-09-05T02:10:35.279Z,68.30
2022-09-05T02:13:56.339Z,68.10
2022-09-05T02:17:27.330Z,67.60
2022-09-05T02:20:50.855Z,67.60
2022-09-05T02:24:12.972Z,67.30
2022-09-05T02:27:33.141Z,67.50
2022-09-05T02:31:18.811Z,67.50
2022-09-05T02:34:35.476Z,67.20
2022-09-05T02:38:18.375Z,67.40
2022-09-05T02:45:08.136Z,67.20
2022-09-05T02:45:26.857Z,67.10
2022-09-05T02:48:48.382Z,66.40
2022-09-05T02:57:28.965Z,66.80
2022-09-05T02:57:38.791Z,66.90
2022-09-05T02:59:17.036Z,66.00
2022-09-05T03:03:05.126Z,67.20
2022-09-05T03:06:34.211Z,67.60
2022-09-05T03:10:05.924Z,67.60
2022-09-05T03:14:18.501Z,67.90
2022-09-05T03:18:20.689Z,68.50
2022-09-05T03:22:18.540Z,68.90
2022-09-05T03:26:14.744Z,69.10
2022-09-05T03:30:15.398Z,69.00
2022-09-05T03:33:59.849Z,69.10
2022-09-05T03:37:42.640Z,69.10
2022-09-05T03:41:18.136Z,69.00
2022-09-05T03:44:45.864Z,68.50
2022-09-05T03:48:23.072Z,68.80
2022-09-05T03:57:10.927Z,68.40
2022-09-05T03:57:13.117Z,68.50
2022-09-05T03:59:57.042Z,68.60
2022-09-05T04:08:09.416Z,68.80
2022-09-05T04:08:17.181Z,68.80
2022-09-05T04:10:34.145Z,68.50
2022-09-05T04:13:49.337Z,68.70
2022-09-05T04:17:01.383Z,68.30
2022-09-05T04:20:17.010Z,68.60
2022-09-05T04:23:33.213Z,69.20
2022-09-05T04:27:00.168Z,69.10
2022-09-05T04:30:37.705Z,69.20
2022-09-05T04:34:01.157Z,68.70
2022-09-05T04:37:07.675Z,70.00
2022-09-05T04:40:36.890Z,69.20
2022-09-05T04:43:49.435Z,70.30
2022-09-05T04:46:58.301Z,69.90
2022-09-05T04:50:12.529Z,69.70
2022-09-05T04:53:31.494Z,70.00
2022-09-05T04:56:42.878Z,69.70
2022-09-05T05:05:58.123Z,69.70
2022-09-05T05:06:16.110Z,69.70
2022-09-05T05:07:07.493Z,70.30
2022-09-05T05:12:34.835Z,69.60
2022-09-05T05:17:57.987Z,69.60
2022-09-05T05:18:13.399Z,69.30
2022-09-05T05:21:03.540Z,70.10
2022-09-05T05:24:15.870Z,70.50
2022-09-05T05:27:32.318Z,69.70
2022-09-05T05:30:36.226Z,69.60
2022-09-05T05:33:41.937Z,68.20
2022-09-05T05:36:57.320Z,67.00
2022-09-05T05:40:12.202Z,65.80
2022-09-05T05:43:18.514Z,65.00
2022-09-05T05:46:37.248Z,64.80
2022-09-05T05:49:58.875Z,63.20
2022-09-05T05:53:43.488Z,62.90
2022-09-05T05:57:21.837Z,61.60
2022-09-05T06:00:52.067Z,60.80
2022-09-05T06:05:03.096Z,59.70
2022-09-05T06:11:20.519Z,59.20
2022-09-05T06:14:59.031Z,58.50
2022-09-05T06:17:40.491Z,56.60
2022-09-05T06:22:06.238Z,56.90
2022-09-05T06:26:10.274Z,57.10
2022-09-05T06:29:34.264Z,56.00
2022-09-05T06:33:04.080Z,54.70
2022-09-05T06:36:29.560Z,56.00
2022-09-05T06:40:00.293Z,54.10
2022-09-05T06:43:26.920Z,54.20
2022-09-05T06:47:22.465Z,54.30
2022-09-05T06:50:27.000Z,53.80
2022-09-05T06:54:16.461Z,53.60
2022-09-05T06:58:18.110Z,53.10
2022-09-05T07:01:38.423Z,52.50
2022-09-05T07:05:37.563Z,52.30
2022-09-05T07:08:51.708Z,52.30
2022-09-05T07:12:15.921Z,52.20
2022-09-05T07:15:39.721Z,51.80
2022-09-05T07:18:55.041Z,51.90
2022-09-05T07:22:47.644Z,51.70
2022-09-05T07:25:51.230Z,51.90
2022-09-05T07:29:02.310Z,52.20
2022-09-05T07:32:09.337Z,51.90
2022-09-05T07:35:21.607Z,52.00
2022-09-05T07:38:52.094Z,51.90
2022-09-05T07:41:57.826Z,52.10
2022-09-05T07:45:10.710Z,52.70
2022-09-05T07:48:22.255Z,52.90
2022-09-05T07:56:46.030Z,53.10
2022-09-05T07:57:10.466Z,53.30
2022-09-05T07:58:25.410Z,53.30
2022-09-05T08:01:28.944Z,53.40
2022-09-05T08:04:41.016Z,54.50
2022-09-05T08:07:51.697Z,53.80
2022-09-05T08:11:24.277Z,53.70
2022-09-05T08:14:46.175Z,53.90
2022-09-05T08:18:05.361Z,51.40
2022-09-05T08:21:13.458Z,50.40
2022-09-05T08:24:28.147Z,50.70
2022-09-05T08:27:50.765Z,50.20
2022-09-05T08:31:08.268Z,50.20
2022-09-05T08:34:27.709Z,49.90
2022-09-05T08:37:45.213Z,50.10
2022-09-05T08:41:00.353Z,50.00
2022-09-05T08:46:41.810Z,50.00
2022-09-05T08:47:55.435Z,51.50
2022-09-05T08:51:18.373Z,49.30
2022-09-05T08:54:35.929Z,49.30
2022-09-05T08:58:10.946Z,49.40
2022-09-05T09:01:29.042Z,47.80
2022-09-05T09:05:01.735Z,48.20
2022-09-05T09:08:15.941Z,49.30
2022-09-05T09:11:34.416Z,48.60
2022-09-05T09:14:54.894Z,48.90
2022-09-05T09:18:00.458Z,48.80
2022-09-05T09:21:29.701Z,49.80
2022-09-05T09:24:42.629Z,48.90
2022-09-05T09:28:49.595Z,48.50
2022-09-05T09:32:13.261Z,48.40
2022-09-05T09:35:27.073Z,47.40
2022-09-05T09:38:49.836Z,47.20
2022-09-05T09:42:32.471Z,47.30
2022-09-05T09:46:00.719Z,48.60
2022-09-05T09:49:40.893Z,48.80
2022-09-05T09:53:24.930Z,47.50
2022-09-05T09:57:22.502Z,48.20
2022-09-05T10:00:29.369Z,47.30
2022-09-05T10:07:17.044Z,48.30
2022-09-05T10:10:47.757Z,48.20
2022-09-05T10:12:04.125Z,47.90
2022-09-05T10:15:31.714Z,47.80
2022-09-05T10:18:56.774Z,46.80
2022-09-05T10:22:36.560Z,47.80
2022-09-05T10:26:17.177Z,47.70
2022-09-05T10:29:50.651Z,47.30
2022-09-05T10:35:17.316Z,47.90
2022-09-05T10:36:54.894Z,47.60
2022-09-05T10:40:09.680Z,47.30
2022-09-05T10:43:25.834Z,47.80
2022-09-05T10:46:51.180Z,47.90
2022-09-05T10:50:18.239Z,47.30
2022-09-05T10:53:42.652Z,47.50
2022-09-05T10:56:51.034Z,47.60
2022-09-05T11:02:21.202Z,48.00
2022-09-05T11:04:00.381Z,48.20
2022-09-05T11:07:24.835Z,48.70
2022-09-05T11:10:38.443Z,48.10
2022-09-05T11:13:48.768Z,47.90
2022-09-05T11:17:04.381Z,47.60
2022-09-05T11:21:04.657Z,47.40
2022-09-05T11:24:37.024Z,47.60
2022-09-05T11:27:47.092Z,46.40
2022-09-05T11:30:57.961Z,46.80
2022-09-05T11:39:54.716Z,45.70
2022-09-05T11:40:04.007Z,46.00
2022-09-05T11:42:49.807Z,45.80
2022-09-05T11:46:22.797Z,46.00
2022-09-05T11:50:10.673Z,46.40
2022-09-05T11:53:59.886Z,45.20
2022-09-05T11:57:34.687Z,46.00
2022-09-05T12:00:48.309Z,45.80
2022-09-05T12:04:41.798Z,45.50
2022-09-05T12:08:11.416Z,46.30
2022-09-05T12:11:44.293Z,45.70
2022-09-05T12:15:08.249Z,45.70
2022-09-05T12:18:37.596Z,44.90
2022-09-05T12:22:08.613Z,46.00
2022-09-05T12:27:44.288Z,45.90
2022-09-05T12:29:32.961Z,46.40
2022-09-05T12:33:35.278Z,46.20
2022-09-05T12:40:57.037Z,46.60
2022-09-05T12:41:32.746Z,46.00
2022-09-05T12:44:38.306Z,44.90
2022-09-05T12:46:58.414Z,46.40
2022-09-05T12:50:32.620Z,46.90
2022-09-05T12:53:46.479Z,46.20
2022-09-05T13:00:41.120Z,45.30
2022-09-05T13:03:07.314Z,44.90
2022-09-05T13:04:17.479Z,44.20
2022-09-05T13:07:23.753Z,44.30
2022-09-05T13:14:50.039Z,44.40
2022-09-05T13:15:08.059Z,43.30
2022-09-05T13:17:44.419Z,44.50
2022-09-05T13:21:02.245Z,45.10
2022-09-05T13:24:12.201Z,45.90
2022-09-05T13:27:23.448Z,45.60
2022-09-05T13:37:44.773Z,45.70
2022-09-05T13:38:11.510Z,46.30
2022-09-05T13:38:19.616Z,46.60
2022-09-05T13:40:54.478Z,46.60
2022-09-05T13:44:25.777Z,47.00
2022-09-05T13:47:58.380Z,47.00
2022-09-05T13:51:28.722Z,47.00
2022-09-05T13:54:47.582Z,46.90
2022-09-05T13:58:11.027Z,46.10
2022-09-05T14:02:25.863Z,46.60
2022-09-05T14:05:41.032Z,46.90
2022-09-05T14:12:43.862Z,46.60
2022-09-05T14:15:59.039Z,46.70
2022-09-05T14:19:43.783Z,47.40
2022-09-05T14:23:07.970Z,46.80
2022-09-05T14:26:21.203Z,46.60
2022-09-05T14:29:46.426Z,46.80
2022-09-05T14:37:45.375Z,46.50
2022-09-05T14:37:52.814Z,47.40
2022-09-05T14:41:53.244Z,48.20
2022-09-05T14:45:46.126Z,48.40
2022-09-05T14:49:28.929Z,49.00
2022-09-05T14:52:43.398Z,49.40
2022-09-05T14:56:32.041Z,49.60
2022-09-05T15:03:00.344Z,50.20
2022-09-05T15:03:03.770Z,50.30
2022-09-05T15:06:16.022Z,50.90
2022-09-05T15:12:20.001Z,50.70
2022-09-05T15:12:52.052Z,51.10
2022-09-05T15:16:10.473Z,51.80
2022-09-05T15:20:05.392Z,51.60
2022-09-05T15:23:16.975Z,52.00
2022-09-05T15:26:25.693Z,52.50
2022-09-05T15:29:34.223Z,52.50
2022-09-05T15:32:38.871Z,52.80
2022-09-05T15:35:46.338Z,53.00
2022-09-05T15:38:55.652Z,54.10
2022-09-05T15:42:13.825Z,53.90
2022-09-05T15:45:28.996Z,53.60
2022-09-05T15:48:35.961Z,53.90
2022-09-05T15:51:49.446Z,53.60
2022-09-05T15:54:57.018Z,54.60
2022-09-05T15:58:06.156Z,53.40
2022-09-05T16:01:32.621Z,53.70
2022-09-05T16:10:31.110Z,54.70
2022-09-05T16:10:39.839Z,55.90
2022-09-05T16:20:45.367Z,55.50
2022-09-05T16:23:20.281Z,56.60
2022-09-05T16:23:21.046Z,56.40
2022-09-05T16:25:48.197Z,56.30
2022-09-05T16:28:58.632Z,56.30
2022-09-05T16:32:22.374Z,55.60
2022-09-05T16:35:26.924Z,56.80
2022-09-05T16:38:49.331Z,56.60
2022-09-05T16:42:00.833Z,56.70
2022-09-05T16:45:16.483Z,56.70
2022-09-05T16:48:45.517Z,56.80
2022-09-05T16:52:02.316Z,57.00
2022-09-05T16:55:18.361Z,56.30
2022-09-05T16:58:33.460Z,56.30
2022-09-05T17:02:07.263Z,56.40
2022-09-05T17:05:24.485Z,56.60
2022-09-05T17:08:32.955Z,56.50
2022-09-05T17:12:00.304Z,55.70
2022-09-05T17:15:15.606Z,55.70
2022-09-05T17:18:26.869Z,55.50
2022-09-05T17:25:11.056Z,54.40
2022-09-05T17:29:27.607Z,56.30
2022-09-05T17:29:35.094Z,56.00
2022-09-05T17:32:28.332Z,57.10
2022-09-05T17:35:59.449Z,56.00
2022-09-05T17:39:41.956Z,56.50
2022-09-05T17:42:58.625Z,56.60
2022-09-05T17:46:21.091Z,57.40
2022-09-05T17:49:45.050Z,57.00
2022-09-05T17:53:25.252Z,56.60
2022-09-05T17:56:37.604Z,57.00
2022-09-05T17:59:41.580Z,57.10
2022-09-05T18:03:09.522Z,57.10
2022-09-05T18:06:59.265Z,57.70
2022-09-05T18:13:55.606Z,58.30
2022-09-05T18:17:36.998Z,58.10
2022-09-05T18:24:36.217Z,57.60
2022-09-05T18:28:05.154Z,58.80
2022-09-05T18:31:58.953Z,58.80
2022-09-05T18:35:39.578Z,59.00
2022-09-05T18:40:31.112Z,58.90
2022-09-05T18:44:14.120Z,59.40
2022-09-05T18:47:36.942Z,59.60
2022-09-05T18:51:13.360Z,59.30
2022-09-05T18:54:25.711Z,59.40
2022-09-05T18:57:40.322Z,59.50
2022-09-05T19:00:49.259Z,59.90
2022-09-05T19:03:56.018Z,60.10
2022-09-05T19:07:09.888Z,60.10
2022-09-05T19:10:35.770Z,60.20
2022-09-05T19:13:46.581Z,60.50
2022-09-05T19:16:51.037Z,60.50
2022-09-05T19:20:32.556Z,60.10
2022-09-05T19:23:44.272Z,60.90
2022-09-05T19:27:07.558Z,60.60
2022-09-05T19:36:46.285Z,60.90
2022-09-05T19:37:09.793Z,60.70
2022-09-05T19:37:28.954Z,60.30
2022-09-05T19:47:26.965Z,60.50
2022-09-05T19:47:39.304Z,60.70
2022-09-05T19:48:02.375Z,61.80
2022-09-05T19:51:16.869Z,60.80
2022-09-05T19:54:30.569Z,61.10
2022-09-05T19:57:33.877Z,61.40
2022-09-05T20:00:39.134Z,61.20
2022-09-05T20:03:49.141Z,61.00
2022-09-05T20:06:52.455Z,61.40
2022-09-05T20:09:58.255Z,61.40
2022-09-05T20:13:02.225Z,61.40
2022-09-05T20:16:05.782Z,61.60
2022-09-05T20:19:25.560Z,61.90
2022-09-05T20:22:48.982Z,62.60
2022-09-05T20:25:57.056Z,62.30
2022-09-05T20:29:05.678Z,62.50
2022-09-05T20:32:09.305Z,62.40
2022-09-05T20:40:03.988Z,62.40
2022-09-05T20:43:17.263Z,62.90
2022-09-05T20:43:31.553Z,63.00
2022-09-05T20:48:34.526Z,63.30
2022-09-05T20:54:18.672Z,63.50
2022-09-05T20:54:28.318Z,63.30
2022-09-05T20:56:23.493Z,63.80
2022-09-05T20:59:34.725Z,63.90
2022-09-05T21:02:50.623Z,64.00
2022-09-05T21:05:55.584Z,63.70
2022-09-05T21:09:22.605Z,63.40
2022-09-05T21:12:32.723Z,63.80
2022-09-05T21:15:52.830Z,63.60
2022-09-05T21:18:57.482Z,62.90
2022-09-05T21:22:07.359Z,63.80
2022-09-05T21:25:20.871Z,63.70
2022-09-05T21:28:33.835Z,63.70
2022-09-05T21:31:45.360Z,63.20
2022-09-05T21:34:53.616Z,63.40
2022-09-05T21:37:57.638Z,63.40
2022-09-05T21:41:03.848Z,63.40
2022-09-05T21:47:44.983Z,63.50
2022-09-05T21:47:49.808Z,63.30
2022-09-05T21:50:56.406Z,63.10
2022-09-05T21:57:55.258Z,63.10
2022-09-05T21:59:26.231Z,63.00
2022-09-05T22:00:56.873Z,63.10
2022-09-05T22:04:00.332Z,62.40
2022-09-05T22:07:05.049Z,62.90
2022-09-05T22:10:10.565Z,62.70
2022-09-05T22:13:15.663Z,62.90
2022-09-05T22:16:18.912Z,63.00
2022-09-05T22:19:37.750Z,62.90
2022-09-05T22:22:43.473Z,62.90
2022-09-05T22:26:00.569Z,62.00
2022-09-05T22:29:05.687Z,62.60
2022-09-05T22:32:09.411Z,62.90
2022-09-05T22:35:28.014Z,62.60
2022-09-05T22:38:33.209Z,62.40
2022-09-05T22:41:36.619Z,62.30
2022-09-05T22:44:42.630Z,62.20
2022-09-05T22:47:45.800Z,62.00
2022-09-05T22:50:49.280Z,61.80
2022-09-05T22:53:52.488Z,61.80
2022-09-05T22:56:55.668Z,60.50
2022-09-05T23:00:00.224Z,61.70
2022-09-05T23:03:06.293Z,61.70
2022-09-05T23:06:11.325Z,61.40
2022-09-05T23:09:14.738Z,61.90
2022-09-05T23:12:18.012Z,62.00
2022-09-05T23:15:22.949Z,61.80
2022-09-05T23:18:26.295Z,61.10
2022-09-05T23:21:29.526Z,61.90
2022-09-05T23:24:33.161Z,62.40
2022-09-05T23:27:37.788Z,62.70
2022-09-05T23:30:42.428Z,63.90
2022-09-05T23:33:45.736Z,63.40
2022-09-05T23:36:48.901Z,63.60
2022-09-05T23:39:52.061Z,63.20
2022-09-05T23:42:57.412Z,62.40
2022-09-05T23:46:03.025Z,63.40
2022-09-05T23:49:06.478Z,63.30
2022-09-05T23:52:09.749Z,63.60
2022-09-05T23:55:16.043Z,63.50
2022-09-05T23:58:19.226Z,63.70
